Time;durP1;ratioP1;P1;durP2;ratioP2;P2;SDS_P1;SDS_P2;PMS_P1;PMS_P2;Temp;Humidity;BMP_temperature;BMP_pressure;BME280_temperature;BME280_humidity;BME280_pressure;Samples;Min_cycle;Max_cycle;Signal;HPM_P1;HPM_P2
2022/06/26 00:01:00;;;;;;;;;;;;;;;18.52;87.27;95390.88;10475201;28;1841;-74
2022/06/26 00:06:03;;;;;;;;;;;;;;;18.49;87.37;95391.53;10471083;28;1973;-74
2022/06/26 00:11:07;;;;;;;;;;;;;;;18.37;88.46;95393.06;10462047;28;2204;-75
2022/06/26 00:16:10;;;;;;;;;;;;;;;18.48;88.26;95395.38;10474694;28;1906;-75
2022/06/26 00:21:14;;;;;;;;;;;;;;;18.46;89.10;95398.44;10473004;28;1939;-75
2022/06/26 00:26:17;;;;;;;;;;;;;;;18.35;89.19;95402.69;10471305;28;1937;-74
2022/06/26 00:31:21;;;;;;;;;;;;;;;18.33;89.89;95410.41;10470420;28;1961;-74
2022/06/26 00:36:25;;;;;;;;;;;;;;;18.25;90.81;95406.59;10474758;28;2003;-74
2022/06/26 00:41:29;;;;;;;;;;;19.20;99.90;;;18.19;91.16;95405.19;10473402;28;1895;-74
2022/06/26 00:46:31;;;;;;;;;;;19.10;99.90;;;17.98;92.17;95409.81;10477604;28;1914;-75
2022/06/26 00:51:35;;;;;;;;;;;19.10;99.90;;;17.95;92.78;95411.28;10470752;28;2017;-75
2022/06/26 00:56:39;;;;;;;;;;;;;;;18.05;92.40;95410.09;10474743;28;2143;-75
2022/06/26 01:01:42;;;;;;;;;;;;;;;17.96;93.17;95412.88;10474619;28;1927;-73
2022/06/26 01:06:46;;;;;;;;;;;;;;;18.01;93.51;95409.19;10472689;28;2068;-74
2022/06/26 01:11:50;;;;;;;;;;;;;;;18.04;93.65;95422.09;10474220;28;1950;-74
2022/06/26 01:17:01;;;;;;;;;;;;;;;18.05;93.25;95407.38;10474912;28;1993;-74
2022/06/26 01:22:15;;;;;;;;;;;;;;;18.11;93.06;95414.22;10471489;28;1919;-75
2022/06/26 01:27:22;;;;;;;;;;;;;;;18.19;92.82;95410.63;10471804;28;2073;-75
2022/06/26 01:32:33;;;;;;;;;;;;;;;18.25;92.23;95412.03;10470723;28;1994;-76
2022/06/26 01:37:44;;;;;;;;;;;;;;;18.26;92.31;95410.94;10476091;28;1938;-75
2022/06/26 01:42:47;;;;;;;;;;;;;;;18.24;92.33;95413.16;10468627;28;1981;-75
2022/06/26 01:47:50;;;;;;;;;;;;;;;18.29;92.13;95415.69;10479793;28;2020;-75
2022/06/26 01:52:53;;;;;;;;;;;;;;;18.35;91.84;95410.84;10469115;28;1892;-75
2022/06/26 01:58:01;;;;;;;;;;;;;;;18.34;92.42;95410.06;10474274;28;1982;-74
2022/06/26 02:03:05;;;;;;;;;;;;;;;18.31;92.34;95413.44;10468891;28;1918;-75
2022/06/26 02:08:08;;;;;;;;;;;;;;;18.30;92.59;95406.41;10467790;28;1909;-75
2022/06/26 02:18:33;;;;;;;;;;;;;;;18.34;92.62;95412.78;10469498;28;1927;-75
2022/06/26 02:23:37;;;;;;;;;;;;;;;18.30;93.04;95421.94;10470207;28;1955;-75
2022/06/26 02:28:41;;;;;;;;;;;;;;;18.32;93.03;95428.66;10470178;28;2196;-75
2022/06/26 02:33:45;;;;;;;;;;;;;;;18.31;93.16;95439.84;10476337;28;1923;-75
2022/06/26 02:38:48;;;;;;;;;;;18.80;99.90;;;18.34;93.35;95450.88;10472342;28;2006;-75
2022/06/26 02:43:52;;;;;;;;;;;19.00;99.90;;;18.31;94.15;95446.09;10473595;28;1932;-74
2022/06/26 02:48:55;;;;;;;;;;;19.20;99.90;;;18.24;94.04;95461.34;10487708;28;1973;-74
2022/06/26 02:53:58;;;;;;;;;;;19.10;99.90;;;18.25;94.50;95477.34;10489678;28;2360;-75
2022/06/26 02:59:01;;;;;;;;;;;19.00;99.90;;;18.31;94.90;95478.72;10469593;28;1893;-75
2022/06/26 03:04:05;;;;;;;;;;;19.00;99.90;;;18.26;94.94;95486.31;10471403;28;1971;-75
2022/06/26 03:09:08;;;;;;;;;;;19.00;99.90;;;18.30;94.88;95493.47;10469736;28;2019;-75
2022/06/26 03:14:11;;;;;;;;;;;19.10;99.90;;;18.30;95.26;95503.56;10480106;28;1982;-75
2022/06/26 03:19:14;;;;;;;;;;;19.00;99.90;;;18.33;95.65;95522.75;10471938;28;1962;-74
2022/06/26 03:24:20;;;;;;;;;;;19.10;99.90;;;18.35;96.47;95506.88;10467664;28;1888;-74
2022/06/26 03:29:24;;;;;;;;;;;19.00;99.90;;;18.19;97.84;95492.25;10473583;28;2016;-74
2022/06/26 03:34:27;;;;;;;;;;;19.00;99.90;;;18.20;98.57;95504.75;10476330;28;2009;-74
2022/06/26 03:39:31;;;;;;;;;;;19.00;99.90;;;18.36;97.62;95502.25;10478812;28;1943;-74
2022/06/26 03:44:34;;;;;;;;;;;19.10;99.90;;;18.31;98.06;95508.66;10479623;28;1891;-75
2022/06/26 03:49:37;;;;;;;;;;;19.00;99.90;;;18.26;98.42;95516.25;10476713;28;1938;-74
2022/06/26 03:54:41;;;;;;;;;;;19.00;99.90;;;18.19;98.99;95519.44;10475177;28;1964;-74
2022/06/26 03:59:44;;;;;;;;;;;19.10;99.90;;;18.36;97.72;95524.81;10471638;28;1951;-77
2022/06/26 04:04:47;;;;;;;;;;;19.00;99.90;;;18.56;96.88;95519.72;10478061;28;2056;-74
2022/06/26 04:09:50;;;;;;;;;;;19.20;99.90;;;18.81;95.24;95518.78;10472766;28;1954;-74
2022/06/26 04:14:54;;;;;;;;;;;19.30;99.90;;;19.00;93.74;95526.47;10472941;28;1827;-74
2022/06/26 04:19:57;;;;;;;;;;;19.60;99.90;;;19.15;92.98;95534.06;10477722;28;1986;-75
2022/06/26 04:25:00;;;;;;;;;;;19.70;99.90;;;19.37;91.21;95535.59;10483091;28;1949;-75
2022/06/26 04:30:03;;;;;;;;;;;19.90;99.90;;;19.88;89.09;95538.94;10478336;28;1940;-75
2022/06/26 04:35:06;;;;;;;;;;;20.30;99.90;;;20.63;83.05;95532.41;10477795;28;1916;-74
2022/06/26 04:40:09;;;;;;;;;;;20.90;99.90;;;21.35;77.04;95527.09;10479949;28;1998;-74
2022/06/26 04:45:12;;;;;;;;;;;21.50;99.90;;;21.66;74.21;95531.88;10470777;28;1928;-76
2022/06/26 04:50:16;;;;;;;;;;;21.90;99.90;;;20.98;77.07;95524.47;10477767;28;1935;-74
2022/06/26 04:55:18;;;;;;;;;;;21.80;99.90;;;20.84;78.14;95535.78;10487585;28;1990;-74
2022/06/26 05:00:23;;;;;;;;;;;21.50;99.90;;;20.73;78.83;95537.38;10476119;28;1954;-74
2022/06/26 05:05:26;;;;;;;;;;;21.50;99.90;;;20.83;77.41;95533.41;10486429;28;1970;-75
2022/06/26 05:10:29;;;;;;;;;;;21.50;99.90;;;21.12;75.93;95532.28;10473350;28;2010;-74
2022/06/26 05:15:32;;;;;;;;;;;21.60;99.90;;;21.41;73.48;95534.72;10473258;28;1985;-75
2022/06/26 05:20:35;;;;;;;;;;;21.90;99.90;;;21.81;70.51;95539.28;10475154;28;2038;-75
2022/06/26 05:25:40;;;;;;;;;;;21.90;99.90;;;21.49;72.02;95538.44;10474290;28;2339;-75
2022/06/26 05:30:43;;;;;;;;;;;22.20;99.90;;;21.31;72.23;95537.94;10473678;28;1910;-75
2022/06/26 05:35:46;;;;;;;;;;;22.10;99.90;;;21.27;72.55;95539.75;10477880;28;2018;-75
2022/06/26 05:40:49;;;;;;;;;;;22.00;99.90;;;21.88;69.42;95538.69;10466818;28;2014;-75
2022/06/26 05:45:53;;;;;;;;;;;22.30;99.90;;;22.12;68.59;95538.56;10478126;28;1943;-75
2022/06/26 05:50:56;;;;;;;;;;;22.50;99.90;;;22.40;66.62;95543.94;10475127;28;2109;-75
2022/06/26 05:56:00;;;;;;;;;;;22.80;99.90;;;23.47;62.38;95540.81;10473072;28;2036;-75
2022/06/26 06:01:03;;;;;;;;;;;23.50;99.90;;;23.66;61.19;95540.81;10470869;28;1982;-75
2022/06/26 06:06:06;;;;;;;;;;;23.80;99.90;;;24.58;57.50;95540.88;10476049;28;2121;-75
2022/06/26 06:11:09;;;;;;;;;;;24.50;99.90;;;25.45;53.12;95532.63;10467735;28;2002;-75
2022/06/26 06:16:12;;;;;;;;;;;25.10;99.90;;;24.74;54.79;95546.97;10472655;28;1977;-75
2022/06/26 06:21:15;;;;;;;;;;;25.50;99.90;;;24.14;57.04;95546.78;10472637;28;1931;-76
2022/06/26 06:26:18;;;;;;;;;;;24.90;99.90;;;23.97;58.09;95539.81;10475473;28;1957;-74
2022/06/26 06:31:21;;;;;;;;;;;24.70;99.90;;;23.73;59.43;95553.91;10476040;28;1930;-76
2022/06/26 06:36:24;;;;;;;;;;;24.50;99.90;;;23.73;58.97;95554.69;10479063;28;1870;-75
2022/06/26 06:41:27;;;;;;;;;;;24.10;99.90;;;24.33;58.02;95553.38;10468446;28;1969;-75
2022/06/26 06:46:30;;;;;;;;;;;24.40;99.90;;;24.63;55.83;95561.75;10477243;28;1974;-76
2022/06/26 06:51:34;;;;;;;;;;;24.90;99.90;;;24.56;55.90;95556.13;10475247;28;2059;-76
2022/06/26 06:56:37;;;;;;;;;;;24.90;99.90;;;24.86;55.05;95553.44;10469134;28;1995;-74
2022/06/26 07:01:40;;;;;;;;;;;25.10;99.90;;;25.32;52.68;95546.66;10470559;28;2090;-75
2022/06/26 07:06:43;;;;;;;;;;;25.50;99.90;;;25.08;54.10;95544.38;10476766;28;1867;-75
2022/06/26 07:11:46;;;;;;;;;;;25.40;99.90;;;25.16;52.13;95548.00;10494774;28;1955;-75
2022/06/26 07:16:57;;;;;;;;;;;25.50;99.90;;;24.93;53.96;95548.81;10475298;28;1856;-75
2022/06/26 07:22:00;;;;;;;;;;;25.60;99.90;;;25.35;52.95;95536.84;10477945;28;1773;-75
2022/06/26 07:27:03;;;;;;;;;;;25.80;99.90;;;25.29;51.66;95541.09;10480174;28;1860;-75
2022/06/26 07:32:06;;;;;;;;;;;25.90;99.90;;;25.41;51.41;95526.31;10474919;28;1985;-75
2022/06/26 07:37:10;;;;;;;;;;;25.90;99.90;;;25.82;51.04;95527.19;10480737;28;1809;-75
2022/06/26 07:42:14;;;;;;;;;;;26.10;99.90;;;25.82;50.65;95530.72;10471067;28;1887;-75
2022/06/26 07:47:17;;;;;;;;;;;26.20;99.90;;;25.80;49.56;95527.56;10477166;28;3525;-75
2022/06/26 07:52:20;;;;;;;;;;;26.30;99.90;;;25.15;50.41;95532.66;10473273;28;1992;-75
2022/06/26 07:57:23;;;;;;;;;;;26.00;99.90;;;25.68;50.30;95527.00;10475476;28;1819;-75
2022/06/26 08:02:26;;;;;;;;;;;26.00;99.90;;;25.58;51.01;95528.47;10472505;28;1835;-75
2022/06/26 08:07:29;;;;;;;;;;;26.30;99.90;;;25.24;52.73;95516.66;10475721;28;1988;-75
2022/06/26 08:12:34;;;;;;;;;;;26.10;99.90;;;25.75;52.66;95522.38;10473124;28;1896;-75
2022/06/26 08:17:38;;;;;;;;;;;26.20;99.90;;;25.66;51.23;95513.63;10477898;28;1845;-75
2022/06/26 08:22:41;;;;;;;;;;;26.50;99.90;;;25.49;52.22;95508.72;10477366;28;1920;-75
2022/06/26 08:27:44;;;;;;;;;;;26.50;99.90;;;25.64;52.64;95510.47;10480180;28;1918;-75
2022/06/26 08:32:48;;;;;;;;;;;26.40;99.90;;;25.48;52.87;95498.88;10476743;28;1828;-75
2022/06/26 08:37:51;;;;;;;;;;;26.50;99.90;;;25.26;53.09;95490.38;10478558;28;1930;-75
2022/06/26 08:42:54;;;;;;;;;;;26.30;99.90;;;25.25;53.30;95499.00;10475587;28;1784;-74
2022/06/26 08:47:58;;;;;;;;;;;26.00;99.90;;;25.61;52.75;95497.44;10480728;28;1969;-74
2022/06/26 08:53:01;;;;;;;;;;;26.30;99.90;;;25.52;52.74;95499.72;10475818;28;1813;-74
2022/06/26 08:58:04;;;;;;;;;;;26.30;99.90;;;24.98;52.88;95507.28;10480022;28;1840;-75
2022/06/26 09:03:06;;;;;;;;;;;26.10;99.90;;;25.47;51.15;95505.53;10482339;28;1820;-75
2022/06/26 09:08:09;;;;;;;;;;;26.20;99.90;;;26.23;49.70;95502.41;10476151;28;1972;-74
2022/06/26 09:13:12;;;;;;;;;;;26.70;99.90;;;25.91;50.35;95502.09;10477212;28;1847;-75
2022/06/26 09:18:16;;;;;;;;;;;26.70;99.90;;;26.23;49.90;95494.13;10486662;28;1863;-75
2022/06/26 09:23:19;;;;;;;;;;;26.80;99.90;;;26.52;52.12;95497.91;10469066;28;1843;-75
2022/06/26 09:28:23;;;;;;;;;;;27.00;99.90;;;25.95;53.64;95502.91;10472647;28;1910;-75
2022/06/26 09:33:26;;;;;;;;;;;27.00;99.90;;;26.16;52.04;95508.63;10474481;28;1870;-75
2022/06/26 09:38:29;;;;;;;;;;;26.90;99.90;;;26.37;49.97;95500.53;10474996;28;1820;-76
2022/06/26 09:43:32;;;;;;;;;;;27.00;99.90;;;26.08;49.19;95501.47;10472062;28;1855;-75
2022/06/26 09:48:35;;;;;;;;;;;27.00;99.90;;;26.10;48.18;95496.38;10474797;28;1910;-75
2022/06/26 09:53:38;;;;;;;;;;;26.70;99.90;;;26.35;48.76;95488.31;10474257;28;1802;-74
2022/06/26 09:58:41;;;;;;;;;;;27.00;99.90;;;26.16;47.15;95497.63;10470202;28;1788;-74
2022/06/26 10:09:06;;;;;;;;;;;27.00;99.90;;;26.53;46.83;95477.44;10473928;28;1953;-75
2022/06/26 10:14:09;;;;;;;;;;;27.20;99.90;;;26.33;45.75;95479.63;10467424;28;1925;-76
2022/06/26 10:19:12;;;;;;;;;;;27.10;99.90;;;26.52;45.27;95473.88;10471723;28;1910;-74
2022/06/26 10:24:16;;;;;;;;;;;27.30;99.90;;;26.88;46.48;95472.16;10475959;28;1812;-75
2022/06/26 10:29:20;;;;;;;;;;;;;;;26.88;46.39;95469.38;10468587;28;2364;-74
2022/06/26 10:34:24;;;;;;;;;;;;;;;26.70;47.17;95471.25;10470655;28;1843;-75
2022/06/26 10:39:28;;;;;;;;;;;;;;;27.43;46.41;95466.50;10471255;28;1834;-75
2022/06/26 10:44:31;;;;;;;;;;;;;;;28.01;42.17;95470.97;10459994;28;1806;-75
2022/06/26 10:49:34;;;;;;;;;;;29.30;99.90;;;28.92;40.23;95473.31;10472399;28;1918;-75
2022/06/26 10:54:37;;;;;;;;;;;30.50;99.90;;;28.78;39.33;95456.72;10475711;28;1793;-75
2022/06/26 10:59:42;;;;;;;;;;;;;;;29.15;39.31;95461.00;10462860;28;1846;-75
2022/06/26 11:04:45;;;;;;;;;;;;;;;28.45;42.37;95469.81;10473403;28;1701;-75
2022/06/26 11:09:49;;;;;;;;;;;;;;;28.53;40.95;95456.78;10485321;28;1906;-75
2022/06/26 11:14:53;;;;;;;;;;;;;;;28.30;41.47;95443.34;10488026;28;1867;-75
2022/06/26 11:25:19;;;;;;;;;;;;;;;28.72;42.65;95452.78;10467083;28;1826;-74
2022/06/26 11:30:23;;;;;;;;;;;;;;;28.40;43.91;95453.63;10482608;28;1985;-75
2022/06/26 11:35:27;;;;;;;;;;;;;;;27.86;44.17;95446.47;10493609;28;1800;-75
2022/06/26 11:40:31;;;;;;;;;;;;;;;27.03;44.26;95445.41;10487872;28;1802;-76
2022/06/26 11:45:35;;;;;;;;;;;;;;;26.98;44.53;95447.78;10475356;28;1770;-75
2022/06/26 11:50:39;;;;;;;;;;;;;;;26.98;43.52;95442.25;10471120;28;2177;-75
2022/06/26 11:55:43;;;;;;;;;;;;;;;27.12;45.09;95447.88;10479492;28;1829;-75
2022/06/26 12:00:46;;;;;;;;;;;;;;;27.42;44.97;95429.03;10475366;28;1850;-75
2022/06/26 12:05:55;;;;;;;;;;;;;;;27.21;44.93;95427.00;10473229;28;1857;-75
2022/06/26 12:10:59;;;;;;;;;;;28.50;99.90;;;27.57;43.89;95440.13;10479242;28;1910;-75
2022/06/26 12:16:03;;;;;;;;;;;28.40;99.90;;;27.60;43.22;95439.31;10477274;28;1895;-76
2022/06/26 12:21:07;;;;;;;;;;;28.30;99.90;;;27.69;42.38;95431.50;10472200;28;1888;-76
2022/06/26 12:26:09;;;;;;;;;;;28.40;99.90;;;27.69;42.86;95432.28;10471725;28;1817;-76
2022/06/26 12:31:13;;;;;;;;;;;28.50;99.90;;;27.72;42.88;95436.22;10459906;28;1910;-75
2022/06/26 12:36:19;;;;;;;;;;;28.70;99.90;;;27.62;45.08;95415.66;10464212;28;1803;-75
2022/06/26 12:41:23;;;;;;;;;;;28.70;99.90;;;27.60;44.07;95417.22;10461290;28;1851;-75
2022/06/26 12:46:25;;;;;;;;;;;28.50;99.90;;;27.78;44.74;95412.56;10462127;28;1875;-74
2022/06/26 12:51:29;;;;;;;;;;;28.80;99.90;;;27.48;44.92;95410.09;10459895;28;2612;-75
2022/06/26 12:56:32;;;;;;;;;;;28.60;99.90;;;27.86;43.65;95403.06;10476195;28;1923;-75
2022/06/26 13:01:35;;;;;;;;;;;28.60;99.90;;;27.99;42.95;95396.00;10469193;28;1895;-75
2022/06/26 13:06:39;;;;;;;;;;;28.80;99.90;;;28.42;42.99;95400.69;10467397;28;1827;-75
2022/06/26 13:11:43;;;;;;;;;;;29.10;99.90;;;28.44;42.79;95404.66;10465180;28;1906;-75
2022/06/26 13:16:47;;;;;;;;;;;29.50;99.90;;;28.36;43.26;95386.50;10468962;28;1885;-75
2022/06/26 13:21:52;;;;;;;;;;;29.20;99.90;;;28.50;42.52;95391.19;10467224;28;1952;-75
2022/06/26 13:26:56;;;;;;;;;;;29.40;99.90;;;28.25;43.09;95392.03;10465572;28;1795;-75
2022/06/26 13:31:59;;;;;;;;;;;29.20;99.90;;;28.19;42.50;95398.34;10468413;28;1983;-76
2022/06/26 13:37:02;;;;;;;;;;;29.30;99.90;;;28.18;43.48;95391.22;10473933;28;1929;-75
2022/06/26 13:42:05;;;;;;;;;;;29.10;99.90;;;28.11;43.32;95386.50;10469684;28;1913;-75
2022/06/26 13:47:08;;;;;;;;;;;29.10;99.90;;;28.27;43.30;95383.34;10470611;28;1786;-75
2022/06/26 13:52:11;;;;;;;;;;;29.20;99.90;;;28.34;43.26;95383.34;10465012;28;2054;-75
2022/06/26 13:57:14;;;;;;;;;;;29.20;99.90;;;28.13;42.94;95380.59;10468345;28;1815;-75
2022/06/26 14:02:17;;;;;;;;;;;29.10;99.90;;;28.02;42.86;95373.09;10463865;28;2008;-75
2022/06/26 14:07:20;;;;;;;;;;;29.00;99.90;;;28.36;43.51;95378.19;10461097;28;1833;-75
2022/06/26 14:12:24;;;;;;;;;;;29.10;99.90;;;28.24;41.92;95378.59;10457215;28;1914;-75
2022/06/26 14:17:27;;;;;;;;;;;29.20;99.90;;;28.06;42.41;95381.41;10474302;28;1870;-75
2022/06/26 14:27:51;;;;;;;;;;;29.00;99.90;;;29.02;41.07;95356.28;10464709;28;1815;-75
2022/06/26 14:32:54;;;;;;;;;;;29.50;99.90;;;28.69;40.60;95370.59;10465611;28;1977;-75
2022/06/26 14:37:57;;;;;;;;;;;29.60;99.90;;;28.50;41.27;95356.06;10462259;28;1867;-75
2022/06/26 14:43:00;;;;;;;;;;;29.40;99.90;;;28.22;42.18;95362.41;10461840;28;1924;-75
2022/06/26 14:48:03;;;;;;;;;;;29.20;99.90;;;28.22;42.22;95353.34;10468886;28;1641;-75
2022/06/26 14:53:06;;;;;;;;;;;29.10;99.90;;;28.81;41.52;95350.81;10462487;28;1961;-75
2022/06/26 14:58:10;;;;;;;;;;;29.40;99.90;;;28.35;42.10;95354.50;10467101;28;1934;-75
2022/06/26 15:03:13;;;;;;;;;;;29.30;99.90;;;28.67;41.61;95353.63;10467558;28;1877;-75
2022/06/26 15:08:16;;;;;;;;;;;29.40;99.90;;;28.74;41.64;95356.38;10469170;28;1829;-75
2022/06/26 15:13:19;;;;;;;;;;;29.50;99.90;;;28.95;40.76;95342.50;10460203;28;1957;-76
2022/06/26 15:18:22;;;;;;;;;;;29.70;99.90;;;28.72;41.13;95348.47;10460108;28;2192;-75
2022/06/26 15:23:25;;;;;;;;;;;29.70;99.90;;;28.64;41.27;95335.09;10460094;28;2180;-75
2022/06/26 15:28:28;;;;;;;;;;;29.60;99.90;;;28.26;42.01;95346.63;10468048;28;1837;-74
2022/06/26 15:33:31;;;;;;;;;;;29.40;99.90;;;28.51;41.96;95346.59;10472564;28;2061;-76
2022/06/26 15:38:33;;;;;;;;;;;29.40;99.90;;;28.84;41.53;95335.41;10474196;28;2163;-75
2022/06/26 15:43:36;;;;;;;;;;;29.50;99.90;;;28.95;41.11;95333.41;10473987;28;1832;-75
2022/06/26 15:48:39;;;;;;;;;;;29.60;99.90;;;29.34;39.89;95328.41;10481745;28;1856;-76
2022/06/26 15:53:42;;;;;;;;;;;30.00;99.90;;;28.91;39.33;95327.84;10477603;28;1917;-75
2022/06/26 15:58:46;;;;;;;;;;;29.80;99.90;;;28.54;40.06;95331.16;10489323;28;1911;-76
2022/06/26 16:03:49;;;;;;;;;;;29.40;99.90;;;28.58;40.14;95314.56;10469389;28;1904;-75
2022/06/26 16:08:53;;;;;;;;;;;29.30;99.90;;;28.46;40.12;95313.81;10471617;28;1887;-75
2022/06/26 16:13:56;;;;;;;;;;;29.40;99.90;;;28.11;40.97;95311.09;10481691;28;1988;-76
2022/06/26 16:18:59;;;;;;;;;;;29.00;99.90;;;28.08;41.07;95320.22;10479740;28;1839;-72
2022/06/26 16:29:23;;;;;;;;;;;28.80;99.90;;;28.00;41.32;95295.34;10467037;28;1841;-73
2022/06/26 16:34:25;;;;;;;;;;;28.70;99.90;;;27.76;42.26;95298.94;10463441;28;2228;-73
2022/06/26 16:39:29;;;;;;;;;;;28.70;99.90;;;27.77;42.85;95296.97;10469695;28;1913;-75
2022/06/26 16:44:32;;;;;;;;;;;28.50;99.90;;;27.46;43.89;95296.53;10463162;28;1937;-74
2022/06/26 16:49:36;;;;;;;;;;;28.30;99.90;;;27.30;44.12;95290.63;10469960;28;1894;-73
2022/06/26 16:54:39;;;;;;;;;;;28.10;99.90;;;27.24;43.24;95295.75;10470651;28;1909;-75
2022/06/26 16:59:43;;;;;;;;;;;28.00;99.90;;;27.20;44.02;95300.47;10469016;28;1866;-75
2022/06/26 17:04:46;;;;;;;;;;;28.00;99.90;;;27.03;44.42;95303.94;10468369;28;2204;-75
2022/06/26 17:09:49;;;;;;;;;;;27.90;99.90;;;27.03;45.11;95301.19;10465374;28;1914;-76
2022/06/26 17:14:53;;;;;;;;;;;27.70;99.90;;;26.91;45.19;95305.09;10461679;28;1897;-78
2022/06/26 17:19:56;;;;;;;;;;;27.70;99.90;;;26.75;45.63;95296.41;10468209;28;1978;-76
2022/06/26 17:24:59;;;;;;;;;;;27.60;99.90;;;26.71;45.38;95312.13;10465870;28;2121;-77
2022/06/26 17:30:02;;;;;;;;;;;27.50;99.90;;;26.61;45.73;95313.69;10469437;28;1914;-77
2022/06/26 17:35:06;;;;;;;;;;;27.40;99.90;;;26.52;46.34;95304.97;10470366;28;1893;-76
2022/06/26 17:40:09;;;;;;;;;;;27.20;99.90;;;26.46;46.14;95310.06;10472352;28;1847;-79
2022/06/26 17:45:12;;;;;;;;;;;27.20;99.90;;;26.43;46.33;95307.31;10477862;28;1856;-77
2022/06/26 17:50:15;;;;;;;;;;;27.10;99.90;;;26.29;47.37;95303.28;10487743;28;1968;-77
2022/06/26 17:55:18;;;;;;;;;;;27.10;99.90;;;26.24;47.94;95309.16;10482911;28;1910;-78
2022/06/26 18:00:23;;;;;;;;;;;27.00;99.90;;;26.19;47.93;95309.50;10476224;28;2008;-79
2022/06/26 18:05:26;;;;;;;;;;;26.90;99.90;;;26.12;48.45;95312.22;10485614;28;1902;-78
2022/06/26 18:10:30;;;;;;;;;;;26.90;99.90;;;26.02;49.45;95315.69;10468755;28;1958;-78
2022/06/26 18:15:34;;;;;;;;;;;26.70;99.90;;;25.92;49.53;95311.72;10471275;28;1825;-76
2022/06/26 18:20:40;;;;;;;;;;;26.60;99.90;;;25.73;49.92;95312.78;10467058;28;1951;-77
2022/06/26 18:25:43;;;;;;;;;;;26.50;99.90;;;25.67;50.01;95311.50;10468552;28;1892;-76
2022/06/26 18:30:46;;;;;;;;;;;26.40;99.90;;;25.55;51.11;95315.34;10472685;28;1890;-76
2022/06/26 18:35:49;;;;;;;;;;;26.30;99.90;;;25.41;51.60;95314.44;10479088;28;1964;-76
2022/06/26 18:40:52;;;;;;;;;;;26.20;99.90;;;25.22;52.15;95324.50;10471610;28;1861;-74
2022/06/26 18:45:58;;;;;;;;;;;26.10;99.90;;;25.10;52.09;95326.72;10476257;28;1867;-76
2022/06/26 18:51:00;;;;;;;;;;;25.90;99.90;;;24.97;51.97;95337.19;10488851;28;1914;-76
2022/06/26 18:56:03;;;;;;;;;;;25.80;99.90;;;24.80;51.91;95333.06;10479228;28;1950;-73
2022/06/26 19:01:06;;;;;;;;;;;25.60;99.90;;;24.68;52.59;95327.81;10465325;28;1870;-76
2022/06/26 19:06:09;;;;;;;;;;;25.40;99.90;;;24.43;53.45;95333.00;10475172;28;1773;-75
2022/06/26 19:16:54;;;;;;;;;;;25.10;99.90;;;24.09;51.23;95337.63;10474341;28;1856;-74
2022/06/26 19:21:57;;;;;;;;;;;25.00;99.90;;;24.00;50.39;95338.69;10470432;28;1840;-74
2022/06/26 19:27:00;;;;;;;;;;;24.80;99.90;;;23.86;50.66;95337.69;10470979;28;1982;-75
2022/06/26 19:32:03;;;;;;;;;;;24.80;99.90;;;23.72;50.50;95332.75;10474059;28;1914;-77
2022/06/26 19:37:06;;;;;;;;;;;24.60;99.90;;;23.61;50.35;95332.63;10477984;28;1824;-77
2022/06/26 19:42:26;;;;;;;;;;;24.40;99.90;;;23.43;50.38;95331.50;10477102;28;1966;-76
2022/06/26 19:47:29;;;;;;;;;;;24.30;99.90;;;23.34;50.36;95341.91;10484453;28;1779;-75
2022/06/26 19:52:33;;;;;;;;;;;24.10;99.90;;;23.19;50.88;95338.91;10471360;28;1910;-77
2022/06/26 19:57:37;;;;;;;;;;;24.00;99.90;;;23.06;50.56;95334.78;10479867;28;1859;-76
2022/06/26 20:02:40;;;;;;;;;;;23.80;99.90;;;22.92;50.45;95329.81;10471164;28;1849;-76
2022/06/26 20:07:43;;;;;;;;;;;24.50;99.90;;;22.85;50.24;95329.66;10473109;28;1875;-76
2022/06/26 20:13:08;;;;;;;;;;;;;;;22.84;50.70;95330.00;10463282;28;1976;-71
2022/06/26 20:18:11;;;;;;;;;;;;;;;22.84;50.58;95321.78;10471410;28;1828;-69
2022/06/26 20:23:14;;;;;;;;;;;;;;;22.61;51.04;95319.81;10469543;28;1813;-71
2022/06/26 20:28:18;;;;;;;;;;;;;;;22.55;51.55;95320.47;10477363;28;1798;-72
2022/06/26 20:33:21;;;;;;;;;;;;;;;22.34;52.23;95313.41;10482481;28;1982;-72
2022/06/26 20:38:24;;;;;;;;;;;;;;;22.31;52.50;95310.59;10473118;28;1860;-72
2022/06/26 20:43:32;;;;;;;;;;;;;;;22.18;53.02;95309.13;10475832;28;1823;-71
2022/06/26 20:48:36;;;;;;;;;;;;;;;22.11;53.55;95310.56;10473671;28;2204;-72
2022/06/26 20:53:39;;;;;;;;;;;;;;;21.96;54.18;95303.19;10473210;28;1910;-71
2022/06/26 20:58:43;;;;;;;;;;;;;;;21.82;54.79;95302.84;10472791;28;1845;-72
2022/06/26 21:03:46;;;;;;;;;;;;;;;21.74;55.14;95292.91;10472916;28;1835;-72
2022/06/26 21:08:50;;;;;;;;;;;;;;;21.71;55.76;95283.47;10473751;28;2027;-72
2022/06/26 21:13:57;;;;;;;;;;;;;;;21.78;55.65;95280.09;10474330;28;1934;-72
2022/06/26 21:19:01;;;;;;;;;;;;;;;21.60;56.58;95271.50;10473006;28;1893;-73
2022/06/26 21:24:05;;;;;;;;;;;;;;;21.54;57.52;95267.44;10472255;28;1873;-72
2022/06/26 21:29:09;;;;;;;;;;;;;;;21.40;58.16;95262.44;10471990;28;2071;-72
2022/06/26 21:34:13;;;;;;;;;;;;;;;21.30;58.79;95269.22;10466466;28;1977;-72
2022/06/26 21:39:16;;;;;;;;;;;;;;;21.18;59.63;95271.25;10475618;28;2106;-73
2022/06/26 21:44:21;;;;;;;;;;;;;;;21.12;60.38;95269.91;10470657;28;1802;-72
2022/06/26 21:49:24;;;;;;;;;;;;;;;21.04;61.03;95256.09;10475867;28;1742;-73
2022/06/26 21:54:27;;;;;;;;;;;;;;;20.95;61.67;95241.81;10476169;28;1923;-72
2022/06/26 21:59:31;;;;;;;;;;;;;;;20.89;62.18;95242.44;10475155;28;1939;-72
2022/06/26 22:04:35;;;;;;;;;;;;;;;20.79;63.29;95227.34;10476482;28;1790;-71
2022/06/26 22:09:39;;;;;;;;;;;;;;;20.70;64.10;95213.09;10471986;28;1832;-72
2022/06/26 22:14:43;;;;;;;;;;;;;;;20.73;64.00;95212.38;10469210;28;1913;-72
2022/06/26 22:19:47;;;;;;;;;;;;;;;20.58;65.17;95216.69;10466325;28;1855;-71
2022/06/26 22:24:50;;;;;;;;;;;;;;;20.72;64.97;95208.84;10455183;28;1866;-71
2022/06/26 22:29:56;;;;;;;;;;;;;;;20.66;65.10;95199.31;10463354;28;1876;-72
2022/06/26 22:35:02;;;;;;;;;;;;;;;20.50;65.92;95193.88;10472367;28;1921;-72
2022/06/26 22:40:06;;;;;;;;;;;;;;;20.42;66.21;95203.00;10484869;28;1854;-72
2022/06/26 22:45:09;;;;;;;;;;;;;;;20.59;66.00;95201.09;10472619;28;1847;-72
2022/06/26 22:50:13;;;;;;;;;;;;;;;20.78;65.45;95207.44;10470091;28;1839;-72
2022/06/26 22:55:18;;;;;;;;;;;;;;;20.52;67.11;95196.25;10482666;28;1926;-72
2022/06/26 23:00:21;;;;;;;;;;;;;;;20.41;67.89;95201.38;10467860;28;1819;-72
2022/06/26 23:05:26;;;;;;;;;;;;;;;20.43;68.21;95209.25;10476666;28;1839;-72
2022/06/26 23:10:30;;;;;;;;;;;;;;;20.21;69.33;95218.78;10471075;28;1825;-72
2022/06/26 23:15:33;;;;;;;;;;;;;;;20.10;70.11;95202.09;10465047;28;1930;-72
2022/06/26 23:20:37;;;;;;;;;;;;;;;20.07;70.70;95199.31;10464915;28;1854;-72
2022/06/26 23:25:40;;;;;;;;;;;;;;;19.97;71.70;95204.09;10469201;28;1898;-72
2022/06/26 23:30:44;;;;;;;;;;;;;;;19.86;72.51;95189.38;10463935;28;1785;-73
2022/06/26 23:35:47;;;;;;;;;;;;;;;19.81;73.00;95186.91;10464268;28;1975;-71
2022/06/26 23:40:51;;;;;;;;;;;;;;;19.81;73.64;95177.94;10465382;28;1996;-73
2022/06/26 23:45:55;;;;;;;;;;;;;;;19.92;72.93;95173.56;10468027;28;1782;-71
2022/06/26 23:50:59;;;;;;;;;;;;;;;19.85;73.39;95176.91;10474175;28;1869;-72
2022/06/26 23:56:03;;;;;;;;;;;;;;;19.92;73.68;95168.13;10484697;28;1989;-71
